Terminal Aerodrome Forecast
Issued by NWS Binghamton, NY

Home | Current Version | Previous Version | Text Only | Print | Product List | Glossary On
Versions: 1 2 3 4 5 6 7 8 9 10 11 12 13 14 15 16 17 18 19 20 21
000
FTUS41 KBGM 311100
TAFAVP
TAF
KAVP 311137Z 3112/0112 33010G18KT P6SM BKN028
     FM311600 32010G18KT P6SM SCT035
     FM010000 26004KT P6SM BKN040
     FM010900 28005KT P6SM BKN025=

USA.gov is the U.S. government's official web portal to all federal, state and local government web resources and services.